createdAt,value
2022-11-16T00:02:13.858Z,2.00
2022-11-16T00:04:41.431Z,2.27
2022-11-16T00:07:09.147Z,1.70
2022-11-16T00:09:36.724Z,1.87
2022-11-16T00:12:06.352Z,2.30
2022-11-16T00:14:35.098Z,1.73
2022-11-16T00:17:03.332Z,1.90
2022-11-16T00:19:31.085Z,1.97
2022-11-16T00:21:58.858Z,1.93
2022-11-16T00:24:26.308Z,1.70
2022-11-16T00:26:55.003Z,2.13
2022-11-16T00:29:26.265Z,1.97
2022-11-16T00:31:54.274Z,1.90
2022-11-16T00:34:22.588Z,1.87
2022-11-16T00:36:53.542Z,1.80
2022-11-16T00:39:20.989Z,2.70
2022-11-16T00:41:48.836Z,1.90
2022-11-16T00:44:18.486Z,1.90
2022-11-16T00:46:45.897Z,2.07
2022-11-16T00:49:13.372Z,1.77
2022-11-16T00:51:40.917Z,1.87
2022-11-16T00:54:09.969Z,2.00
2022-11-16T00:56:38.513Z,2.67
2022-11-16T00:59:07.046Z,2.03
2022-11-16T01:01:34.950Z,2.13
2022-11-16T01:04:04.876Z,1.80
2022-11-16T01:06:32.336Z,1.80
2022-11-16T01:09:01.210Z,2.13
2022-11-16T01:11:47.330Z,1.87
2022-11-16T01:14:14.724Z,2.40
2022-11-16T01:16:44.306Z,2.07
2022-11-16T01:19:11.718Z,2.00
2022-11-16T01:21:42.255Z,1.93
2022-11-16T01:24:09.748Z,1.70
2022-11-16T01:26:38.269Z,2.13
2022-11-16T01:29:05.908Z,2.27
2022-11-16T01:31:37.552Z,2.00
2022-11-16T01:34:06.236Z,1.93
2022-11-16T01:36:36.790Z,1.83
2022-11-16T01:39:07.518Z,2.20
2022-11-16T01:41:55.536Z,2.23
2022-11-16T01:44:32.643Z,1.93
2022-11-16T01:47:14.736Z,2.03
2022-11-16T01:49:50.203Z,2.00
2022-11-16T01:52:34.168Z,1.80
2022-11-16T01:55:03.198Z,1.70
2022-11-16T01:57:45.099Z,1.47
2022-11-16T02:00:14.613Z,1.43
2022-11-16T02:02:48.087Z,1.10
2022-11-16T02:05:52.281Z,1.43
2022-11-16T02:09:08.031Z,1.13
2022-11-16T02:11:49.138Z,1.27
2022-11-16T02:14:29.040Z,1.83
2022-11-16T02:17:17.143Z,1.43
2022-11-16T02:19:49.089Z,1.43
2022-11-16T02:22:26.507Z,1.63
2022-11-16T02:25:11.261Z,1.43
2022-11-16T02:27:48.351Z,1.53
2022-11-16T02:30:17.101Z,1.43
2022-11-16T02:32:50.663Z,1.30
2022-11-16T02:35:33.043Z,1.30
2022-11-16T02:38:07.958Z,1.23
2022-11-16T02:40:37.722Z,1.60
2022-11-16T02:43:08.073Z,1.87
2022-11-16T02:45:38.421Z,1.50
2022-11-16T02:48:09.714Z,1.50
2022-11-16T02:50:40.517Z,1.60
2022-11-16T02:53:07.955Z,1.40
2022-11-16T02:55:37.045Z,1.30
2022-11-16T02:58:07.270Z,1.70
2022-11-16T03:00:43.797Z,1.57
2022-11-16T03:03:24.059Z,1.67
2022-11-16T03:05:56.018Z,1.63
2022-11-16T03:08:33.198Z,1.70
2022-11-16T03:11:23.737Z,1.53
2022-11-16T03:13:53.879Z,1.67
2022-11-16T03:16:27.847Z,1.60
2022-11-16T03:18:58.554Z,1.50
2022-11-16T03:21:31.540Z,1.80
2022-11-16T03:24:02.028Z,1.60
2022-11-16T03:26:36.616Z,1.47
2022-11-16T03:29:27.876Z,1.83
2022-11-16T03:31:59.862Z,1.60
2022-11-16T03:34:32.828Z,1.60
2022-11-16T03:37:05.783Z,1.50
2022-11-16T03:39:39.426Z,1.57
2022-11-16T03:42:09.501Z,1.73
2022-11-16T03:44:37.717Z,1.60
2022-11-16T03:47:06.628Z,1.40
2022-11-16T03:49:34.206Z,1.90
2022-11-16T03:52:02.737Z,1.40
2022-11-16T03:54:33.869Z,1.70
2022-11-16T03:57:02.116Z,1.67
2022-11-16T03:59:29.784Z,1.60
2022-11-16T04:01:57.554Z,1.40
2022-11-16T04:04:44.480Z,1.67
2022-11-16T04:07:33.915Z,1.87
2022-11-16T04:10:20.420Z,1.77
2022-11-16T04:13:09.190Z,2.00
2022-11-16T04:15:57.122Z,1.60
2022-11-16T04:18:43.637Z,1.50
2022-11-16T04:21:38.679Z,1.30
2022-11-16T04:24:12.493Z,1.73
2022-11-16T04:26:59.516Z,1.87
2022-11-16T04:29:27.142Z,2.03
2022-11-16T04:32:13.717Z,1.90
2022-11-16T04:34:59.836Z,1.30
2022-11-16T04:37:52.309Z,1.83
2022-11-16T04:40:33.641Z,1.90
2022-11-16T04:43:03.358Z,1.90
2022-11-16T04:45:54.333Z,1.70
2022-11-16T04:48:25.684Z,1.53
2022-11-16T04:50:55.088Z,1.60
2022-11-16T04:53:27.090Z,1.80
2022-11-16T04:56:17.565Z,1.90
2022-11-16T04:58:45.124Z,1.80
2022-11-16T05:01:12.824Z,1.60
2022-11-16T05:03:40.292Z,1.57
2022-11-16T05:06:07.905Z,1.30
2022-11-16T05:08:35.782Z,1.73
2022-11-16T05:11:04.947Z,1.60
2022-11-16T05:13:33.252Z,1.63
2022-11-16T05:16:01.379Z,1.57
2022-11-16T05:18:31.824Z,1.20
2022-11-16T05:21:02.478Z,1.20
2022-11-16T05:23:53.872Z,1.23
2022-11-16T05:26:23.861Z,1.47
2022-11-16T05:28:52.456Z,1.80
2022-11-16T05:31:21.131Z,1.30
2022-11-16T05:33:49.199Z,1.60
2022-11-16T05:36:17.306Z,1.50
2022-11-16T05:38:44.856Z,1.33
2022-11-16T05:41:12.372Z,1.37
2022-11-16T05:43:40.002Z,1.57
2022-11-16T05:46:14.905Z,2.00
2022-11-16T05:48:43.666Z,1.67
2022-11-16T05:51:11.206Z,1.40
2022-11-16T05:53:39.217Z,1.70
2022-11-16T05:56:07.948Z,1.43
2022-11-16T05:58:38.983Z,1.43
2022-11-16T06:01:06.922Z,1.50
2022-11-16T06:03:36.374Z,1.53
2022-11-16T06:06:05.023Z,1.20
2022-11-16T06:08:35.068Z,1.20
2022-11-16T06:11:06.672Z,1.53
2022-11-16T06:13:35.934Z,1.60
2022-11-16T06:16:04.565Z,1.23
2022-11-16T06:18:54.289Z,1.40
2022-11-16T06:21:24.281Z,1.73
2022-11-16T06:23:51.712Z,1.50
2022-11-16T06:26:19.113Z,1.50
2022-11-16T06:28:48.820Z,1.30
2022-11-16T06:31:16.416Z,1.43
2022-11-16T06:33:45.281Z,1.80
2022-11-16T06:36:22.363Z,1.20
2022-11-16T06:38:51.902Z,1.67
2022-11-16T06:41:20.900Z,1.60
2022-11-16T06:43:50.513Z,1.60
2022-11-16T06:46:24.836Z,1.17
2022-11-16T06:48:58.788Z,1.40
2022-11-16T06:51:26.562Z,1.30
2022-11-16T06:53:57.640Z,1.57
2022-11-16T06:56:27.785Z,1.40
2022-11-16T06:58:59.333Z,1.30
2022-11-16T07:01:42.030Z,1.50
2022-11-16T07:04:18.013Z,1.40
2022-11-16T07:06:54.389Z,1.63
2022-11-16T07:09:29.318Z,1.23
2022-11-16T07:12:01.226Z,1.27
2022-11-16T07:17:36.757Z,1.60
2022-11-16T07:20:07.616Z,1.10
2022-11-16T07:22:35.565Z,1.17
2022-11-16T07:25:04.533Z,1.33
2022-11-16T07:27:44.131Z,1.30
2022-11-16T07:30:20.662Z,1.40
2022-11-16T07:33:33.622Z,1.10
2022-11-16T07:36:31.543Z,1.33
2022-11-16T07:38:59.582Z,1.20
2022-11-16T07:41:28.952Z,1.43
2022-11-16T07:44:15.642Z,1.37
2022-11-16T07:46:47.807Z,1.43
2022-11-16T07:49:17.507Z,1.30
2022-11-16T07:51:55.506Z,1.60
2022-11-16T07:54:45.468Z,1.37
2022-11-16T07:57:14.821Z,1.40
2022-11-16T07:59:43.195Z,1.20
2022-11-16T08:02:11.578Z,1.17
2022-11-16T08:04:43.825Z,1.50
2022-11-16T08:07:11.916Z,1.27
2022-11-16T08:09:54.595Z,1.10
2022-11-16T08:12:29.505Z,1.50
2022-11-16T08:14:59.772Z,1.27
2022-11-16T08:17:28.768Z,1.30
2022-11-16T08:20:01.221Z,1.10
2022-11-16T08:22:30.323Z,1.00
2022-11-16T08:25:08.430Z,1.13
2022-11-16T08:27:43.860Z,1.60
2022-11-16T08:30:17.171Z,1.30
2022-11-16T08:32:51.957Z,1.20
2022-11-16T08:35:27.841Z,1.10
2022-11-16T08:38:10.027Z,1.30
2022-11-16T08:41:05.204Z,1.27
2022-11-16T08:43:37.221Z,1.37
2022-11-16T08:46:14.165Z,1.13
2022-11-16T08:48:47.907Z,1.47
2022-11-16T08:51:28.259Z,1.30
2022-11-16T08:54:08.331Z,1.00
2022-11-16T08:56:42.200Z,1.17
2022-11-16T08:59:18.787Z,1.10
2022-11-16T09:01:59.781Z,1.33
2022-11-16T09:04:32.768Z,1.30
2022-11-16T09:13:30.922Z,1.60
2022-11-16T09:16:59.614Z,1.03
2022-11-16T09:30:09.897Z,1.27
2022-11-16T09:32:57.829Z,1.20
2022-11-16T09:36:20.111Z,1.20
2022-11-16T09:53:07.205Z,1.23
2022-11-16T09:55:53.163Z,1.30
2022-11-16T09:58:41.305Z,1.00
2022-11-16T10:01:22.157Z,1.10
2022-11-16T10:03:51.794Z,1.30
2022-11-16T10:06:34.512Z,1.10
2022-11-16T10:09:02.372Z,1.60
2022-11-16T10:11:36.325Z,1.47
2022-11-16T10:14:18.186Z,1.40
2022-11-16T10:16:55.310Z,1.60
2022-11-16T10:19:45.426Z,1.60
2022-11-16T10:22:19.515Z,1.30
2022-11-16T10:24:59.813Z,1.47
2022-11-16T10:27:45.046Z,1.30
2022-11-16T10:30:14.662Z,1.37
2022-11-16T10:33:11.332Z,1.50
2022-11-16T10:35:48.737Z,1.37
2022-11-16T10:38:26.297Z,1.30
2022-11-16T10:40:56.707Z,1.80
2022-11-16T10:43:29.195Z,1.50
2022-11-16T10:46:20.152Z,1.20
2022-11-16T10:49:19.418Z,1.73
2022-11-16T10:51:49.549Z,1.80
2022-11-16T10:54:19.743Z,1.70
2022-11-16T10:56:57.355Z,1.33
2022-11-16T10:59:38.523Z,1.60
2022-11-16T11:02:25.426Z,1.30
2022-11-16T11:05:08.059Z,1.33
2022-11-16T11:07:40.199Z,1.63
2022-11-16T11:10:32.411Z,1.30
2022-11-16T11:13:05.001Z,1.60
2022-11-16T11:15:32.886Z,1.47
2022-11-16T11:18:14.349Z,1.33
2022-11-16T11:20:49.046Z,1.50
2022-11-16T11:23:27.134Z,1.37
2022-11-16T11:26:06.002Z,1.60
2022-11-16T11:28:37.595Z,1.40
2022-11-16T11:31:26.894Z,1.60
2022-11-16T11:34:04.189Z,1.43
2022-11-16T11:36:55.999Z,1.30
2022-11-16T11:39:34.087Z,1.30
2022-11-16T11:42:09.011Z,1.50
2022-11-16T11:44:53.427Z,1.77
2022-11-16T11:47:57.897Z,1.40
2022-11-16T11:50:40.771Z,1.37
2022-11-16T11:53:13.302Z,1.13
2022-11-16T11:55:48.483Z,1.40
2022-11-16T11:58:20.781Z,1.33
2022-11-16T12:01:27.483Z,1.33
2022-11-16T12:04:20.724Z,1.33
2022-11-16T12:06:52.862Z,1.20
2022-11-16T12:09:41.755Z,1.50
2022-11-16T12:12:18.914Z,1.23
2022-11-16T12:15:21.854Z,1.37
2022-11-16T12:18:14.537Z,1.30
2022-11-16T12:20:52.533Z,1.30
2022-11-16T12:23:26.169Z,1.30
2022-11-16T12:25:57.714Z,1.30
2022-11-16T12:28:47.093Z,1.50
2022-11-16T12:31:21.120Z,1.50
2022-11-16T12:33:58.222Z,1.47
2022-11-16T12:36:49.587Z,1.20
2022-11-16T12:39:24.887Z,1.70
2022-11-16T12:42:14.865Z,1.10
2022-11-16T12:44:52.940Z,1.40
2022-11-16T12:47:32.643Z,1.17
2022-11-16T12:50:06.640Z,1.10
2022-11-16T12:52:57.789Z,1.10
2022-11-16T12:55:44.451Z,1.37
2022-11-16T12:58:30.138Z,1.20
2022-11-16T13:01:18.073Z,1.63
2022-11-16T13:03:53.815Z,1.30
2022-11-16T13:06:26.202Z,1.13
2022-11-16T13:09:07.827Z,1.10
2022-11-16T13:11:44.589Z,1.50
2022-11-16T13:14:16.262Z,2.07
2022-11-16T13:16:46.618Z,1.50
2022-11-16T13:19:16.897Z,1.27
2022-11-16T13:21:48.672Z,1.43
2022-11-16T13:24:16.715Z,1.40
2022-11-16T13:26:56.630Z,1.70
2022-11-16T13:29:33.155Z,1.30
2022-11-16T13:32:00.578Z,1.33
2022-11-16T13:34:31.458Z,1.67
2022-11-16T13:36:59.217Z,1.23
2022-11-16T13:39:45.720Z,1.20
2022-11-16T13:42:14.137Z,1.20
2022-11-16T13:44:41.866Z,1.03
2022-11-16T13:47:23.673Z,1.20
2022-11-16T13:50:00.174Z,1.30
2022-11-16T13:53:36.429Z,1.40
2022-11-16T13:55:34.460Z,1.10
2022-11-16T13:58:04.587Z,1.20
2022-11-16T14:00:39.276Z,1.20
2022-11-16T14:03:13.080Z,1.30
2022-11-16T14:05:44.248Z,1.80
2022-11-16T14:08:21.616Z,1.30
2022-11-16T14:10:52.521Z,1.00
2022-11-16T14:13:39.573Z,0.93
2022-11-16T14:16:16.751Z,1.20
2022-11-16T14:18:44.543Z,1.30
2022-11-16T14:21:29.907Z,1.03
2022-11-16T14:24:05.850Z,1.30
2022-11-16T14:26:46.349Z,1.20
2022-11-16T14:29:23.430Z,1.30
2022-11-16T14:32:00.061Z,1.13
2022-11-16T14:34:32.975Z,1.20
2022-11-16T14:37:01.172Z,1.47
2022-11-16T14:39:47.756Z,1.00
2022-11-16T14:42:17.824Z,1.30
2022-11-16T14:44:45.668Z,1.30
2022-11-16T14:47:22.876Z,1.30
2022-11-16T14:49:52.330Z,1.10
2022-11-16T14:52:23.565Z,1.37
2022-11-16T14:54:52.873Z,1.10
2022-11-16T14:57:25.854Z,1.50
2022-11-16T15:00:12.710Z,1.10
2022-11-16T15:02:41.158Z,1.13
2022-11-16T15:05:09.218Z,1.20
2022-11-16T15:07:36.908Z,1.33
2022-11-16T15:10:04.919Z,1.30
2022-11-16T15:12:41.572Z,1.30
2022-11-16T15:15:14.442Z,1.10
2022-11-16T15:17:44.575Z,1.13
2022-11-16T15:20:19.944Z,1.10
2022-11-16T15:22:51.619Z,1.00
2022-11-16T15:25:26.908Z,1.10
2022-11-16T15:27:54.918Z,1.03
2022-11-16T15:30:26.979Z,1.30
2022-11-16T15:32:57.439Z,1.10
2022-11-16T15:35:32.444Z,1.00
2022-11-16T15:38:04.440Z,1.00
2022-11-16T15:40:32.382Z,0.90
2022-11-16T15:43:01.483Z,1.03
2022-11-16T15:45:30.376Z,1.00
2022-11-16T15:48:00.703Z,1.20
2022-11-16T15:50:28.859Z,1.00
2022-11-16T15:53:00.039Z,1.67
2022-11-16T15:55:31.855Z,1.10
2022-11-16T15:58:05.404Z,1.30
2022-11-16T16:00:36.411Z,0.97
2022-11-16T16:03:16.259Z,1.20
2022-11-16T16:05:44.150Z,1.00
2022-11-16T16:08:32.460Z,1.10
2022-11-16T16:11:14.048Z,1.17
2022-11-16T16:13:45.968Z,1.10
2022-11-16T16:16:31.477Z,0.93
2022-11-16T16:19:03.836Z,1.10
2022-11-16T16:21:46.287Z,1.00
2022-11-16T16:24:32.764Z,1.00
2022-11-16T16:27:00.354Z,1.27
2022-11-16T16:29:28.586Z,1.13
2022-11-16T16:31:56.684Z,1.40
2022-11-16T16:34:24.147Z,1.10
2022-11-16T16:36:51.872Z,1.20
2022-11-16T16:39:19.577Z,1.30
2022-11-16T16:41:47.034Z,1.47
2022-11-16T16:44:15.373Z,1.00
2022-11-16T16:46:42.791Z,1.10
2022-11-16T16:49:10.126Z,1.00
2022-11-16T16:51:37.545Z,1.00
2022-11-16T16:54:05.128Z,1.10
2022-11-16T16:56:32.671Z,0.97
2022-11-16T16:59:06.175Z,1.13
2022-11-16T17:01:36.383Z,1.37
2022-11-16T17:04:04.148Z,1.27
2022-11-16T17:06:31.506Z,0.93
2022-11-16T17:08:58.966Z,1.00
2022-11-16T17:11:26.349Z,1.10
2022-11-16T17:13:56.258Z,1.00
2022-11-16T17:16:24.106Z,1.03
2022-11-16T17:18:56.098Z,1.13
2022-11-16T17:21:23.659Z,1.10
2022-11-16T17:23:51.321Z,1.00
2022-11-16T17:26:20.407Z,0.97
2022-11-16T17:28:47.969Z,1.00
2022-11-16T17:31:25.741Z,1.10
2022-11-16T17:33:53.429Z,1.00
2022-11-16T17:36:21.003Z,1.20
2022-11-16T17:38:53.774Z,1.10
2022-11-16T17:41:22.398Z,1.20
2022-11-16T17:43:56.657Z,1.27
2022-11-16T17:46:25.745Z,1.20
2022-11-16T17:48:53.772Z,1.20
2022-11-16T17:51:25.000Z,1.27
2022-11-16T17:53:56.154Z,1.00
2022-11-16T17:56:28.809Z,1.10
2022-11-16T17:59:01.756Z,1.30
2022-11-16T18:01:29.645Z,1.23
2022-11-16T18:03:57.223Z,0.90
2022-11-16T18:06:25.733Z,1.10
2022-11-16T18:08:57.743Z,1.20
2022-11-16T18:11:26.516Z,1.20
2022-11-16T18:14:05.592Z,1.10
2022-11-16T18:16:36.399Z,1.10
2022-11-16T18:19:05.349Z,1.20
2022-11-16T18:21:36.435Z,1.70
2022-11-16T18:24:04.053Z,1.37
2022-11-16T18:26:31.712Z,1.23
2022-11-16T18:28:59.242Z,1.10
2022-11-16T18:31:28.229Z,1.10
2022-11-16T18:33:56.036Z,1.53
2022-11-16T18:36:26.052Z,1.73
2022-11-16T18:38:53.601Z,1.43
2022-11-16T18:41:22.511Z,1.27
2022-11-16T18:43:58.346Z,1.10
2022-11-16T18:46:29.017Z,1.43
2022-11-16T18:48:56.990Z,1.20
2022-11-16T18:51:26.242Z,1.33
2022-11-16T18:53:53.757Z,1.50
2022-11-16T18:56:21.302Z,1.30
2022-11-16T18:58:51.018Z,1.60
2022-11-16T19:01:20.700Z,1.20
2022-11-16T19:03:48.569Z,1.43
2022-11-16T19:06:17.904Z,1.10
2022-11-16T19:08:55.537Z,1.20
2022-11-16T19:11:24.183Z,1.30
2022-11-16T19:13:56.522Z,1.37
2022-11-16T19:16:25.171Z,1.20
2022-11-16T19:18:53.298Z,1.07
2022-11-16T19:21:24.199Z,1.50
2022-11-16T19:23:53.639Z,1.50
2022-11-16T19:26:25.996Z,1.20
2022-11-16T19:28:54.541Z,1.43
2022-11-16T19:31:23.769Z,1.10
2022-11-16T19:33:57.717Z,1.37
2022-11-16T19:36:26.027Z,1.50
2022-11-16T19:38:54.079Z,1.27
2022-11-16T19:41:22.860Z,1.23
2022-11-16T19:43:52.808Z,1.30
2022-11-16T19:46:21.607Z,1.40
2022-11-16T19:48:49.521Z,1.10
2022-11-16T19:51:18.996Z,1.20
2022-11-16T19:53:49.641Z,1.40
2022-11-16T19:56:18.642Z,1.40
2022-11-16T19:58:48.855Z,1.43
2022-11-16T20:01:28.897Z,1.40
2022-11-16T20:03:58.102Z,1.20
2022-11-16T20:06:29.191Z,1.27
2022-11-16T20:08:59.156Z,1.27
2022-11-16T20:11:27.937Z,1.30
2022-11-16T20:13:56.251Z,1.40
2022-11-16T20:16:25.055Z,1.43
2022-11-16T20:18:55.913Z,1.13
2022-11-16T20:21:33.075Z,1.40
2022-11-16T20:24:06.781Z,1.20
2022-11-16T20:26:35.541Z,1.33
2022-11-16T20:29:03.331Z,1.10
2022-11-16T20:31:31.953Z,1.30
2022-11-16T20:34:04.535Z,1.20
2022-11-16T20:36:32.741Z,1.40
2022-11-16T20:39:02.938Z,1.30
2022-11-16T20:41:31.242Z,1.20
2022-11-16T20:43:59.257Z,1.50
2022-11-16T20:46:28.234Z,1.20
2022-11-16T20:48:57.405Z,1.13
2022-11-16T20:51:25.104Z,1.40
2022-11-16T20:53:52.915Z,1.50
2022-11-16T20:56:21.243Z,1.13
2022-11-16T20:58:49.580Z,1.40
2022-11-16T21:01:20.528Z,1.37
2022-11-16T21:03:48.391Z,1.43
2022-11-16T21:06:15.971Z,1.30
2022-11-16T21:08:43.942Z,1.30
2022-11-16T21:11:18.990Z,1.23
2022-11-16T21:14:05.862Z,1.50
2022-11-16T21:16:33.919Z,1.30
2022-11-16T21:19:02.022Z,1.40
2022-11-16T21:21:33.169Z,1.30
2022-11-16T21:24:06.054Z,1.10
2022-11-16T21:26:34.461Z,1.00
2022-11-16T21:29:05.222Z,1.10
2022-11-16T21:31:36.703Z,1.30
2022-11-16T21:34:07.692Z,1.40
2022-11-16T21:36:37.756Z,1.10
2022-11-16T21:39:05.357Z,1.20
2022-11-16T21:41:33.106Z,1.47
2022-11-16T21:44:05.184Z,1.30
2022-11-16T21:46:35.006Z,1.13
2022-11-16T21:49:02.626Z,1.20
2022-11-16T21:51:30.989Z,1.20
2022-11-16T21:54:01.679Z,1.10
2022-11-16T21:56:29.341Z,1.20
2022-11-16T21:58:56.764Z,1.17
2022-11-16T22:01:46.779Z,1.10
2022-11-16T22:04:32.891Z,1.20
2022-11-16T22:07:19.605Z,1.00
2022-11-16T22:09:47.154Z,1.00
2022-11-16T22:12:14.976Z,1.10
2022-11-16T22:14:47.689Z,1.00
2022-11-16T22:17:15.822Z,1.10
2022-11-16T22:19:43.615Z,1.30
2022-11-16T22:22:13.100Z,1.17
2022-11-16T22:24:40.760Z,1.10
2022-11-16T22:27:10.616Z,1.33
2022-11-16T22:29:41.171Z,1.30
2022-11-16T22:32:11.907Z,0.93
2022-11-16T22:34:47.015Z,1.20
2022-11-16T22:37:18.140Z,1.13
2022-11-16T22:39:45.871Z,1.00
2022-11-16T22:42:13.592Z,0.90
2022-11-16T22:44:41.063Z,1.07
2022-11-16T22:47:11.337Z,1.23
2022-11-16T22:49:38.882Z,1.10
2022-11-16T22:52:18.922Z,1.20
2022-11-16T22:54:47.732Z,1.00
2022-11-16T22:57:17.627Z,1.30
2022-11-16T22:59:47.745Z,1.00
2022-11-16T23:02:15.312Z,0.90
2022-11-16T23:04:42.763Z,1.00
2022-11-16T23:07:12.540Z,0.80
2022-11-16T23:09:40.133Z,1.00
2022-11-16T23:12:29.118Z,1.10
2022-11-16T23:15:15.211Z,1.20
2022-11-16T23:17:42.706Z,1.00
2022-11-16T23:20:29.412Z,1.00
2022-11-16T23:23:15.522Z,0.90
2022-11-16T23:26:01.816Z,1.00
2022-11-16T23:28:29.265Z,0.90
2022-11-16T23:30:56.660Z,1.00
2022-11-16T23:33:43.917Z,1.10
2022-11-16T23:36:12.262Z,0.80
2022-11-16T23:38:42.328Z,1.03
2022-11-16T23:41:28.211Z,1.00
2022-11-16T23:43:58.580Z,1.07
2022-11-16T23:46:32.595Z,0.90
2022-11-16T23:49:00.883Z,1.00
2022-11-16T23:51:34.294Z,0.90
2022-11-16T23:54:01.731Z,0.93
2022-11-16T23:56:29.226Z,0.90
2022-11-16T23:58:57.472Z,0.83
